Terminal Aerodrome Forecast
Issued by NWS Charleston, WV

Current Version | Previous Version | Graphics & Text | Print | Product List | Glossary On
Versions: 1 2 3 4 5 6 7 8 9 10 11 12 13 14 15 16 17 18 19 20 21
000
FTUS41 KRLX 241100
TAFHTS
TAF
KHTS 241120Z 2412/2512 07005KT P6SM BKN100
     FM241900 09005KT P6SM SCT250
     FM250400 12008KT P6SM BKN250
     FM250700 15009KT P6SM BKN250
     FM251000 17009KT P6SM BKN060
     FM251100 18009KT 6SM -SHRA OVC035=

USA.gov is the U.S. government's official web portal to all federal, state and local government web resources and services.